默认 日期 大小 文件数 浏览量 最新下载 xml
dj mp3磁力链接相关资源由用户搜索指令自动获取,结果来源于网络,本站不存储任何资料,亦不承担任何责任,请于24小时内删除,搜索到1557个磁力,用时16ms。
    ... flag - only time (orig mix).mp3": 12536947, "11 - dancefloorkiller - floorkiller ... (sharaz remix).mp3": 9387637, "10 - lightforce - join me ... - beautiful child (hiver-hammer remix).mp3": 14954855, "05 - divine inspiration - ...
创建时间: 2020-10-21 05:01:07 大小:154.48 MB 文件数量:14 热度:6 最近下载:2025-08-03 13:02:24
    ... Fierce - Locust (Original Mix).mp3": 19966801, "009 - DJ Trace - Mutant Revisited (Original ... Mix).mp3": 14107873, "004 - Bad Company, DJ Trace - Nitrous ... (Original Mix).mp3": 16943377, "002 - Origin ...
创建时间: 2020-10-25 17:36:00 大小:141.72 MB 文件数量:9 热度:9 最近下载:2025-03-15 13:58:02
    ... - Radiostacja Raptime [www.rapmateush123.pl].mp3": 4572691, "04 - Radiostacja Raptime ... Raptime - Reklama [www.rapmateush123.pl].mp3": 2076712, "19 - Radiostacja Raptime - ... Reklama [www.rapmateush123.pl].mp3": 1859752, "21 - Radiostacja Raptime - ...
创建时间: 2020-10-25 19:35:51 大小:219.83 MB 文件数量:34 热度:7 最近下载:2023-04-22 17:20:22
    {"Dj Crash & Dj Ralik Mc Sunsh - happy birday Djangl(2).mp3": 155261495, "Dj Crash & Dj Ralik Mc Sunsh - happy birday Djangl (1)Bucata.mp3": 137824238}
创建时间: 2020-10-28 10:55:36 大小:279.51 MB 文件数量:2 热度:5 最近下载:2022-11-12 12:59:37
    ... -Shade 45.jpg": 53593, "0-DJ Premier.mp3": 285737, "z------------- 1337x.to ... -DJ Premier MP3 128kbps 8-21-2018-PT1.mp3": 55994777, "2-DJ Premier MP3 128kbps ... 8-21-2018-PT2.mp3": 58572749 ...
创建时间: 2020-11-01 18:55:15 大小:109.58 MB 文件数量:7 热度:6 最近下载:2025-04-23 09:46:01
    ... SHY FX - Special Request (Interlude).mp3": 633277, "015 - Java, ... - Ruff & Tuff (Dublic Remix).mp3": 13163958, "014 - Marcus Visionary ... A Dubplate (Original Mix).mp3": 13439574, "010 - Chopstick ... Kenny Knots) (Riddim Tuffa Remix).mp3": 9302127, "012 - Congo ...
创建时间: 2020-11-02 19:54:40 大小:129.04 MB 文件数量:15 热度:6 最近下载:2025-03-12 12:34:02
    ... 43405, "DJ Screw - Chapter 69: Southside Riders (1997) [MP3 320] ... 1": {"06 Southside - Lil Keke.mp3": 15550621, "01 Freestyle - Hawk, ... Mia X, Foxy Brown.mp3": 28658918}, "DJ Screw - Chapter 69: ... Southside Riders (1997) [MP3 320] ...
创建时间: 2020-11-05 20:07:44 大小:237.87 MB 文件数量:16 热度:6 最近下载:2025-08-03 16:30:05
    ... . Why This Kolaveri Di (DJ Amilain Remix).mp3": 8475513, "02. Why This ... . Why This Kolaveri Di (Dj Lemon Exclusive).mp3": 12826909, "06. Why This ... This Kolaveri Di (Dj Harsh & Dj Nonie) (Desi Tadka Remix).mp3": 11341337, "10 ...
创建时间: 2020-11-07 02:38:37 大小:111.59 MB 文件数量:18 热度:4 最近下载:2022-04-10 06:11:57
    ... mp3": 8563400, "12 DJ Trans - Ride Out.mp3": 10288520, "05 DJ Trans - Suki Suki.mp3 ... 2 Much Booty.mp3": 10470919, "09 DJ Nasty Knock - Do ... Ride Wit It.mp3": 6541640, "09 DJ Laz - Mami El ... Latin Swing.mp3": 11050760, "17 DJ Kizzy Rock - Ballin.mp3": 9710600, " ...
创建时间: 2020-11-16 18:23:43 大小:293.7 MB 文件数量:37 热度:5 最近下载:2024-06-07 05:48:02
    ... WKND #018 (TranceMission radio).mp3": 141473683, "FEEL - THE ... WKND #019 (TranceMission radio).mp3": 143585507, "FEEL - THE ... WKND #020 (TranceMission radio).mp3": 144404216, "FEEL - THE ... mp3": 145073162, "FEEL - THE WKND 017 (TranceMission radio) – DJ Feel.mp3 ...
创建时间: 2020-11-18 03:38:13 大小:1.34 GB 文件数量:10 热度:4 最近下载:2022-04-12 05:44:32
    ... !.mp3": 4319163, "01 Power.mp3": 4463361, "04 rootin4.mp3": 4737130, "03 bad News.mp3 ... , "09 haha-haHAAA!.mp3": 4739228, "02 Marge Simpson.mp3": 4716242, "Gorillaz - Demon ... , "05 Piercing thru the Night.mp3": 4704769, "Gorillaz - Discography.torrent": 77568 ...
创建时间: 2020-11-18 20:45:30 大小:39.17 MB 文件数量:17 热度:4 最近下载:2022-04-13 06:31:58
    ... 007 - IWaata - Ratingz.mp3": 7765756, "017 - Daddy1 - Free So.mp3": 6321904, "012 - ... - Nah Leave U.mp3": 7898344, "016 - Jahvillani - Miraculous.mp3": 7277164, "008 - ... "020 - Stonebwoy, Alicai Harley - Understand.mp3": 7971992, "001 - Shenseea, Tarrus Riley ...
创建时间: 2020-11-19 05:30:08 大小:158.19 MB 文件数量:23 热度:4 最近下载:2025-01-16 20:36:02
    ... 005 - IWaata - Ratingz.mp3": 7776196, "015 - Daddy1 - Free So.mp3": 6321904, "004 - ... - Nah Leave U.mp3": 7898344, "010 - Jahvillani - Miraculous.mp3": 7277164, "011 - ... - Shenseea, Tarrus Riley, Rvssian - Lighter.mp3": 4986628, "003 - Xyclone, Konshens, ...
创建时间: 2020-11-19 08:45:20 大小:144 MB 文件数量:21 热度:6 最近下载:2025-03-01 04:22:01
    ... [Nikotin]_Районы-Кварталы_(Vs._Звери).mp3": 14488516, "(05)_[Nikotin] ... _Stop_Narcotix_(Vs._Др._Александров).mp3": 10688222, "(04)_[Nikotin]_Неправда_ ... (Vs._А._Макаровский).mp3": 16888646, "(10)_[Nikotin]_Кофе_И_Сигареты_ ...
创建时间: 2020-11-21 00:37:16 大小:156.38 MB 文件数量:21 热度:3 最近下载:2022-04-13 07:10:16
    ... (03.06.2006) [hR].mp3": 74145792, "DJ Dag - YOU FM Clubnight Hessentag ... Hessentag (03.06.2006) [hR].mp3": 98770944, "Ziel 100 - YOU ... Hessentag (03.06.2006) [hR].mp3": 116660224, "Der 3. Raum - ... Hessentag (03.06.2006) [hR].mp3": 201390080, "Frank Lorber - YOU ...
创建时间: 2020-11-22 12:46:55 大小:2.52 GB 文件数量:20 热度:7 最近下载:2025-09-20 06:56:03
    {"Cover.jpg": 353269, "Non Stop - Shadow Experience Vol 001 [2014-MP3-CBR-320Kbps] - Dj Rajiv.mp3": 275843355}
创建时间: 2020-11-23 05:48:21 大小:263.4 MB 文件数量:2 热度:5 最近下载:2025-02-11 00:01:43
    {"11 Nic-Lumbers.mp3": 14676641, "14 RAVNI -Tivoli.mp3": 14206437, "16 ... Vinyl -My Life.mp3": 14770728, "10 DJ Taki-Boot The ... Sax.mp3": 12370606, "18 Shishkin-Back Groove.mp3 ... AM2PM -Sing It Code3000 Remix.mp3": 15765492, "Torrent Downloaded ...
创建时间: 2020-11-24 05:46:27 大小:264.57 MB 文件数量:21 热度:2 最近下载:2021-06-17 16:25:58
    ... ": 815655, "01. VA - AudioTrack 1.mp3": 13999587, "02. VA - AudioTrack 2 ... .mp3": 15046575, "03. VA - AudioTrack 3.mp3": 10927587, "04. VA - AudioTrack 4.mp3 ... ": 13512664, "05. VA - AudioTrack 5.mp3 ...
创建时间: 2020-11-24 22:34:25 大小:146.44 MB 文件数量:13 热度:4 最近下载:2025-03-24 12:16:04
    ... Cover) (Jmac Edit) Clean.mp3": 8582996, "65. Dj Khaled, Drake - Popstar (Petedown ... (Wavu & Fajro Remix) (Clean).mp3": 5105157, "62. Dj Khaled, Drake - Popstar (Petedown ... Rivas Mashup) (Dirty Extended).mp3": 6937163, "63. Dj Spinking Ft O.T ...
创建时间: 2020-11-29 09:17:36 大小:693.31 MB 文件数量:84 热度:4 最近下载:2022-04-16 06:04:34
    ... ": 56086, "04 - Don (Remix).mp3": 9152580, "07 - Mahi Aaja ( ... "06 - Jaanu Meri Jaan (Remix).mp3": 7789217, "08 - Mere Naseeb ... - Aaj Raat Ka Scene (Remix).mp3": 7040026, "03 - Aksa Beach ... Scene (Remix - Mumbai Version).mp3": 7038892}, "Torrent Downloaded From ...
创建时间: 2020-11-30 19:01:01 大小:72.75 MB 文件数量:15 热度:3 最近下载:2022-04-16 06:20:47